createdAt,value
2023-01-23T00:01:18.724Z,12.33
2023-01-23T00:03:46.163Z,12.93
2023-01-23T00:06:14.366Z,12.17
2023-01-23T00:08:42.613Z,12.60
2023-01-23T00:11:12.218Z,12.50
2023-01-23T00:13:39.705Z,13.47
2023-01-23T00:16:07.727Z,12.97
2023-01-23T00:18:36.594Z,12.63
2023-01-23T00:21:07.229Z,13.20
2023-01-23T00:23:35.131Z,11.47
2023-01-23T00:26:03.442Z,14.23
2023-01-23T00:28:30.944Z,12.07
2023-01-23T00:31:03.392Z,12.47
2023-01-23T00:33:30.871Z,13.13
2023-01-23T00:35:59.670Z,13.07
2023-01-23T00:38:27.266Z,13.40
2023-01-23T00:40:56.286Z,12.90
2023-01-23T00:43:23.865Z,13.73
2023-01-23T00:45:51.900Z,13.97
2023-01-23T00:48:19.355Z,16.17
2023-01-23T00:50:46.967Z,12.30
2023-01-23T00:53:16.027Z,14.00
2023-01-23T00:55:43.732Z,14.20
2023-01-23T00:58:11.337Z,14.47
2023-01-23T01:00:39.961Z,15.37
2023-01-23T01:03:07.905Z,14.53
2023-01-23T01:05:35.629Z,15.03
2023-01-23T01:08:04.164Z,16.13
2023-01-23T01:10:33.953Z,14.53
2023-01-23T01:13:02.337Z,16.23
2023-01-23T01:15:30.121Z,15.53
2023-01-23T01:17:57.674Z,17.90
2023-01-23T01:20:26.053Z,15.90
2023-01-23T01:22:53.590Z,16.50
2023-01-23T01:25:21.120Z,16.47
2023-01-23T01:27:50.043Z,15.57
2023-01-23T01:30:17.966Z,15.63
2023-01-23T01:32:45.873Z,16.27
2023-01-23T01:35:14.594Z,13.97
2023-01-23T01:37:42.469Z,14.10
2023-01-23T01:40:11.464Z,16.03
2023-01-23T01:42:40.187Z,15.27
2023-01-23T01:45:22.746Z,15.37
2023-01-23T01:47:51.552Z,15.17
2023-01-23T01:50:19.319Z,15.00
2023-01-23T01:52:47.016Z,16.67
2023-01-23T01:55:15.282Z,15.17
2023-01-23T01:57:44.772Z,15.93
2023-01-23T02:00:13.456Z,16.33
2023-01-23T02:02:47.346Z,15.67
2023-01-23T02:05:19.358Z,15.40
2023-01-23T02:07:54.296Z,15.40
2023-01-23T02:10:22.925Z,16.27
2023-01-23T02:12:51.437Z,18.70
2023-01-23T02:15:19.927Z,16.37
2023-01-23T02:17:47.800Z,16.27
2023-01-23T02:20:20.316Z,14.53
2023-01-23T02:22:53.333Z,14.80
2023-01-23T02:25:23.087Z,15.80
2023-01-23T02:27:51.926Z,15.03
2023-01-23T02:30:20.801Z,15.77
2023-01-23T02:32:49.603Z,15.27
2023-01-23T02:35:20.033Z,17.73
2023-01-23T02:37:49.364Z,15.40
2023-01-23T02:40:16.948Z,17.23
2023-01-23T02:42:46.211Z,17.57
2023-01-23T02:45:17.803Z,16.27
2023-01-23T02:47:46.356Z,17.23
2023-01-23T02:50:13.925Z,17.63
2023-01-23T02:52:41.431Z,18.07
2023-01-23T02:55:09.279Z,18.27
2023-01-23T02:57:36.713Z,18.60
2023-01-23T03:00:20.692Z,17.17
2023-01-23T03:02:50.696Z,16.87
2023-01-23T03:05:18.438Z,17.70
2023-01-23T03:07:45.953Z,16.57
2023-01-23T03:10:13.432Z,18.97
2023-01-23T03:12:45.228Z,15.40
2023-01-23T03:15:14.389Z,17.30
2023-01-23T03:17:41.819Z,15.80
2023-01-23T03:20:11.574Z,14.53
2023-01-23T03:22:40.657Z,14.37
2023-01-23T03:25:09.344Z,15.03
2023-01-23T03:27:37.401Z,13.70
2023-01-23T03:30:13.625Z,13.13
2023-01-23T03:32:41.319Z,13.50
2023-01-23T03:35:13.870Z,14.20
2023-01-23T03:37:43.145Z,15.67
2023-01-23T03:40:34.253Z,14.50
2023-01-23T03:43:02.157Z,12.93
2023-01-23T03:45:30.105Z,15.13
2023-01-23T03:47:57.661Z,15.57
2023-01-23T03:50:25.257Z,15.20
2023-01-23T03:52:54.051Z,14.23
2023-01-23T03:55:21.579Z,13.30
2023-01-23T03:57:49.235Z,13.10
2023-01-23T04:00:18.020Z,14.07
2023-01-23T04:02:53.534Z,13.13
2023-01-23T04:05:21.320Z,12.10
2023-01-23T04:07:49.685Z,12.67
2023-01-23T04:10:19.141Z,13.00
2023-01-23T04:12:51.321Z,13.73
2023-01-23T04:15:19.144Z,12.37
2023-01-23T04:17:46.681Z,13.07
2023-01-23T04:20:14.626Z,13.93
2023-01-23T04:22:43.967Z,14.27
2023-01-23T04:25:11.471Z,12.97
2023-01-23T04:27:40.286Z,13.50
2023-01-23T04:30:11.496Z,12.60
2023-01-23T04:32:39.469Z,13.50
2023-01-23T04:35:07.555Z,16.20
2023-01-23T04:37:37.606Z,14.37
2023-01-23T04:40:05.639Z,13.77
2023-01-23T04:42:43.375Z,13.37
2023-01-23T04:45:28.840Z,13.43
2023-01-23T04:48:09.877Z,13.60
2023-01-23T04:50:38.443Z,13.33
2023-01-23T04:53:06.583Z,13.93
2023-01-23T04:55:34.856Z,12.83
2023-01-23T04:58:06.865Z,14.87
2023-01-23T05:00:34.395Z,14.30
2023-01-23T05:03:03.564Z,14.27
2023-01-23T05:05:32.320Z,13.60
2023-01-23T05:08:02.144Z,15.53
2023-01-23T05:10:30.589Z,16.17
2023-01-23T05:13:04.287Z,14.63
2023-01-23T05:15:33.553Z,13.53
2023-01-23T05:18:01.081Z,13.30
2023-01-23T05:20:28.786Z,15.60
2023-01-23T05:23:01.037Z,14.47
2023-01-23T05:25:36.570Z,12.67
2023-01-23T05:28:04.857Z,14.10
2023-01-23T05:30:34.723Z,15.07
2023-01-23T05:33:16.536Z,13.30
2023-01-23T05:35:44.208Z,13.93
2023-01-23T05:38:12.921Z,12.63
2023-01-23T05:40:40.648Z,14.10
2023-01-23T05:43:26.804Z,14.53
2023-01-23T05:46:34.176Z,13.37
2023-01-23T05:49:02.053Z,13.73
2023-01-23T05:51:32.467Z,12.30
2023-01-23T05:54:00.947Z,13.83
2023-01-23T05:56:28.674Z,13.93
2023-01-23T05:59:16.402Z,12.83
2023-01-23T06:02:01.084Z,14.43
2023-01-23T06:04:47.780Z,13.37
2023-01-23T06:07:33.300Z,13.13
2023-01-23T06:10:01.103Z,14.20
2023-01-23T06:12:28.574Z,14.03
2023-01-23T06:14:56.047Z,15.67
2023-01-23T06:17:25.284Z,14.93
2023-01-23T06:19:53.818Z,16.63
2023-01-23T06:22:21.525Z,16.47
2023-01-23T06:25:04.512Z,14.50
2023-01-23T06:27:31.998Z,14.23
2023-01-23T06:30:03.258Z,17.23
2023-01-23T06:32:33.909Z,15.23
2023-01-23T06:35:02.270Z,14.90
2023-01-23T06:37:34.517Z,15.37
2023-01-23T06:40:02.272Z,14.53
2023-01-23T06:42:30.959Z,14.83
2023-01-23T06:44:59.100Z,18.87
2023-01-23T06:47:28.751Z,14.77
2023-01-23T06:50:02.459Z,15.27
2023-01-23T06:52:33.391Z,12.67
2023-01-23T06:55:00.925Z,13.23
2023-01-23T06:57:28.409Z,16.10
2023-01-23T06:59:55.924Z,16.57
2023-01-23T07:02:24.302Z,14.13
2023-01-23T07:04:52.073Z,15.43
2023-01-23T07:07:21.819Z,13.90
2023-01-23T07:09:50.629Z,14.90
2023-01-23T07:12:24.551Z,12.50
2023-01-23T07:14:51.981Z,11.67
2023-01-23T07:17:24.503Z,10.60
2023-01-23T07:19:52.328Z,12.70
2023-01-23T07:22:22.459Z,12.47
2023-01-23T07:24:49.881Z,12.17
2023-01-23T07:27:17.512Z,11.03
2023-01-23T07:29:44.976Z,13.63
2023-01-23T07:32:12.389Z,12.20
2023-01-23T07:34:39.901Z,12.13
2023-01-23T07:37:07.555Z,13.30
2023-01-23T07:39:36.356Z,10.60
2023-01-23T07:42:03.864Z,11.83
2023-01-23T07:44:31.347Z,10.63
2023-01-23T07:46:58.778Z,12.40
2023-01-23T07:49:26.264Z,12.20
2023-01-23T07:51:53.683Z,10.60
2023-01-23T07:54:21.343Z,11.60
2023-01-23T07:56:51.218Z,11.50
2023-01-23T07:59:18.645Z,10.97
2023-01-23T08:01:46.065Z,10.23
2023-01-23T08:04:13.619Z,10.87
2023-01-23T08:06:41.105Z,11.43
2023-01-23T08:09:08.633Z,11.13
2023-01-23T08:11:36.118Z,12.13
2023-01-23T08:14:04.971Z,11.40
2023-01-23T08:16:32.487Z,10.43
2023-01-23T08:19:00.018Z,12.20
2023-01-23T08:21:28.473Z,11.53
2023-01-23T08:23:55.948Z,12.37
2023-01-23T08:26:23.376Z,10.87
2023-01-23T08:28:50.810Z,13.03
2023-01-23T08:31:19.677Z,12.07
2023-01-23T08:33:47.150Z,11.43
2023-01-23T08:36:14.641Z,11.70
2023-01-23T08:38:42.668Z,12.93
2023-01-23T08:41:11.717Z,12.37
2023-01-23T08:43:41.363Z,12.23
2023-01-23T08:46:10.008Z,11.50
2023-01-23T08:48:38.825Z,12.07
2023-01-23T08:51:07.374Z,13.07
2023-01-23T08:53:35.034Z,12.53
2023-01-23T08:56:03.188Z,15.93
2023-01-23T08:58:30.912Z,15.53
2023-01-23T09:00:58.449Z,15.07
2023-01-23T09:03:26.292Z,13.07
2023-01-23T09:05:55.209Z,14.80
2023-01-23T09:08:22.631Z,17.07
2023-01-23T09:10:50.108Z,15.60
2023-01-23T09:13:19.609Z,16.80
2023-01-23T09:15:47.147Z,15.27
2023-01-23T09:18:14.632Z,17.20
2023-01-23T09:20:42.150Z,14.73
2023-01-23T09:23:11.029Z,14.50
2023-01-23T09:25:38.968Z,16.97
2023-01-23T09:28:06.499Z,18.10
2023-01-23T09:30:34.092Z,15.70
2023-01-23T09:33:02.141Z,16.33
2023-01-23T09:35:29.974Z,15.97
2023-01-23T09:38:04.839Z,16.20
2023-01-23T09:40:35.496Z,18.30
2023-01-23T09:43:05.960Z,17.53
2023-01-23T09:45:34.065Z,16.83
2023-01-23T09:48:09.769Z,17.17
2023-01-23T09:50:38.813Z,18.70
2023-01-23T09:53:07.888Z,17.83
2023-01-23T09:55:40.348Z,27.80
2023-01-23T09:58:12.877Z,32.83
2023-01-23T10:00:40.415Z,19.10
2023-01-23T10:03:12.336Z,21.27
2023-01-23T10:05:44.671Z,34.93
2023-01-23T10:08:17.709Z,22.03
2023-01-23T10:10:53.715Z,20.23
2023-01-23T10:13:23.952Z,21.00
2023-01-23T10:16:05.179Z,20.27
2023-01-23T10:18:36.458Z,19.20
2023-01-23T10:21:09.072Z,20.77
2023-01-23T10:23:46.886Z,19.67
2023-01-23T10:26:18.350Z,20.83
2023-01-23T10:28:47.451Z,19.07
2023-01-23T10:31:22.743Z,19.80
2023-01-23T10:33:52.054Z,21.50
2023-01-23T10:36:24.145Z,20.40
2023-01-23T10:38:55.886Z,19.60
2023-01-23T10:41:24.713Z,20.83
2023-01-23T10:43:53.056Z,23.10
2023-01-23T10:46:21.557Z,19.90
2023-01-23T10:48:50.341Z,19.70
2023-01-23T10:51:28.026Z,19.60
2023-01-23T10:54:06.177Z,20.37
2023-01-23T10:56:37.123Z,20.03
2023-01-23T10:59:05.801Z,18.47
2023-01-23T11:01:34.367Z,19.70
2023-01-23T11:04:10.320Z,20.17
2023-01-23T11:06:37.947Z,20.77
2023-01-23T11:09:10.407Z,19.30
2023-01-23T11:11:40.893Z,17.20
2023-01-23T11:14:12.154Z,19.83
2023-01-23T11:16:39.733Z,19.33
2023-01-23T11:19:13.333Z,18.37
2023-01-23T11:21:52.631Z,19.20
2023-01-23T11:24:30.618Z,20.33
2023-01-23T11:27:04.621Z,18.00
2023-01-23T11:29:43.508Z,16.67
2023-01-23T11:32:13.017Z,17.97
2023-01-23T11:34:43.444Z,18.13
2023-01-23T11:37:14.142Z,18.77
2023-01-23T11:39:45.997Z,18.93
2023-01-23T11:42:15.863Z,18.20
2023-01-23T11:44:46.397Z,19.27
2023-01-23T11:47:21.554Z,15.20
2023-01-23T11:49:58.819Z,17.77
2023-01-23T11:52:33.105Z,17.03
2023-01-23T11:55:09.416Z,17.13
2023-01-23T11:57:41.479Z,17.27
2023-01-23T12:00:19.370Z,17.03
2023-01-23T12:03:04.356Z,15.87
2023-01-23T12:05:41.812Z,17.80
2023-01-23T12:08:15.319Z,17.47
2023-01-23T12:10:49.089Z,15.93
2023-01-23T12:13:24.446Z,14.47
2023-01-23T12:15:58.438Z,16.43
2023-01-23T12:18:30.895Z,17.60
2023-01-23T12:21:03.572Z,17.23
2023-01-23T12:23:37.701Z,15.33
2023-01-23T12:26:12.445Z,14.63
2023-01-23T12:28:55.567Z,15.93
2023-01-23T12:31:30.145Z,15.87
2023-01-23T12:34:07.415Z,14.20
2023-01-23T12:36:59.383Z,15.90
2023-01-23T12:39:43.041Z,14.00
2023-01-23T12:42:14.138Z,17.53
2023-01-23T12:44:47.987Z,15.20
2023-01-23T12:47:18.169Z,18.80
2023-01-23T12:49:48.914Z,17.50
2023-01-23T12:52:17.625Z,17.10
2023-01-23T12:54:56.647Z,18.03
2023-01-23T12:57:52.284Z,17.93
2023-01-23T13:00:35.979Z,16.83
2023-01-23T13:03:15.217Z,16.80
2023-01-23T13:05:47.876Z,16.33
2023-01-23T13:08:22.717Z,20.03
2023-01-23T13:11:20.572Z,15.83
2023-01-23T13:13:48.227Z,18.90
2023-01-23T13:16:17.659Z,18.57
2023-01-23T13:19:11.464Z,19.63
2023-01-23T13:21:56.861Z,16.47
2023-01-23T13:25:05.549Z,19.47
2023-01-23T13:27:40.334Z,19.80
2023-01-23T13:30:22.753Z,19.57
2023-01-23T13:32:52.078Z,21.60
2023-01-23T13:35:38.469Z,20.13
2023-01-23T13:38:32.061Z,20.63
2023-01-23T13:41:19.216Z,22.33
2023-01-23T13:43:52.877Z,19.97
2023-01-23T13:46:26.825Z,19.13
2023-01-23T14:21:03.556Z,20.63
2023-01-23T14:23:35.504Z,21.77
2023-01-23T14:26:03.566Z,18.90
2023-01-23T14:28:30.989Z,20.90
2023-01-23T14:30:59.860Z,21.50
2023-01-23T14:33:27.574Z,23.43
2023-01-23T14:35:56.194Z,21.97
2023-01-23T14:38:30.704Z,20.40
2023-01-23T14:40:59.607Z,19.87
2023-01-23T14:43:28.132Z,21.00
2023-01-23T14:46:03.521Z,22.13
2023-01-23T14:48:32.976Z,21.27
2023-01-23T14:51:05.047Z,23.13
2023-01-23T14:53:32.581Z,22.13
2023-01-23T14:56:01.970Z,21.23
2023-01-23T14:58:30.071Z,20.03
2023-01-23T15:00:58.119Z,23.80
2023-01-23T15:03:35.725Z,22.27
2023-01-23T15:06:04.142Z,21.77
2023-01-23T15:08:32.804Z,22.23
2023-01-23T15:11:03.112Z,19.80
2023-01-23T15:13:32.812Z,19.40
2023-01-23T15:16:02.180Z,21.87
2023-01-23T15:18:30.557Z,21.83
2023-01-23T15:20:58.768Z,20.37
2023-01-23T15:23:31.041Z,20.50
2023-01-23T15:26:20.041Z,22.43
2023-01-23T15:28:50.102Z,20.90
2023-01-23T15:31:25.666Z,20.30
2023-01-23T15:33:53.579Z,20.90
2023-01-23T15:36:26.007Z,20.80
2023-01-23T15:38:53.827Z,20.30
2023-01-23T15:41:30.280Z,21.00
2023-01-23T15:44:02.151Z,20.20
2023-01-23T15:46:29.649Z,19.27
2023-01-23T15:48:57.136Z,17.83
2023-01-23T15:51:24.600Z,20.53
2023-01-23T15:53:52.147Z,19.97
2023-01-23T15:56:26.445Z,20.00
2023-01-23T15:58:55.291Z,17.47
2023-01-23T16:01:22.889Z,19.13
2023-01-23T16:03:50.375Z,18.53
2023-01-23T16:06:20.865Z,17.63
2023-01-23T16:08:54.929Z,17.80
2023-01-23T16:11:25.495Z,18.27
2023-01-23T16:13:52.929Z,17.50
2023-01-23T16:16:21.805Z,15.93
2023-01-23T16:18:49.316Z,14.77
2023-01-23T16:21:17.007Z,16.03
2023-01-23T16:23:47.619Z,17.17
2023-01-23T16:26:19.489Z,17.37
2023-01-23T16:28:46.935Z,18.27
2023-01-23T16:31:14.691Z,17.97
2023-01-23T16:33:43.680Z,16.13
2023-01-23T16:36:14.023Z,15.60
2023-01-23T16:38:41.729Z,16.87
2023-01-23T16:41:10.134Z,17.53
2023-01-23T16:43:37.717Z,15.43
2023-01-23T16:46:06.184Z,16.23
2023-01-23T16:48:33.593Z,14.17
2023-01-23T16:51:08.118Z,15.67
2023-01-23T16:53:36.706Z,14.83
2023-01-23T16:56:05.252Z,15.17
2023-01-23T16:58:35.609Z,14.90
2023-01-23T17:01:04.411Z,14.23
2023-01-23T17:03:34.025Z,15.97
2023-01-23T17:06:02.950Z,14.50
2023-01-23T17:08:30.615Z,15.37
2023-01-23T17:10:59.512Z,13.07
2023-01-23T17:13:27.586Z,16.17
2023-01-23T17:15:56.502Z,18.03
2023-01-23T17:18:25.749Z,15.30
2023-01-23T17:20:54.995Z,15.70
2023-01-23T17:23:25.370Z,17.50
2023-01-23T17:26:00.835Z,15.67
2023-01-23T17:28:29.085Z,16.10
2023-01-23T17:31:00.268Z,18.00
2023-01-23T17:33:30.236Z,18.97
2023-01-23T17:35:58.013Z,17.33
2023-01-23T17:38:27.679Z,20.27
2023-01-23T17:40:55.216Z,17.87
2023-01-23T17:43:22.648Z,19.20
2023-01-23T17:45:52.088Z,17.53
2023-01-23T17:48:23.647Z,18.60
2023-01-23T17:50:51.211Z,19.27
2023-01-23T17:53:19.403Z,19.10
2023-01-23T17:55:51.219Z,21.20
2023-01-23T17:58:19.015Z,18.30
2023-01-23T18:00:50.732Z,20.90
2023-01-23T18:03:20.767Z,18.63
2023-01-23T18:05:48.230Z,16.30
2023-01-23T18:08:16.203Z,20.10
2023-01-23T18:10:44.733Z,21.90
2023-01-23T18:13:18.825Z,18.00
2023-01-23T18:15:55.772Z,20.80
2023-01-23T18:18:27.236Z,18.63
2023-01-23T18:20:55.386Z,21.20
2023-01-23T18:23:23.915Z,22.77
2023-01-23T18:25:54.401Z,19.30
2023-01-23T18:28:23.624Z,18.53
2023-01-23T18:30:55.895Z,18.73
2023-01-23T18:33:29.191Z,21.37
2023-01-23T18:36:05.490Z,21.40
2023-01-23T18:38:37.583Z,19.70
2023-01-23T18:41:10.341Z,21.17
2023-01-23T18:43:40.784Z,22.07
2023-01-23T18:46:12.245Z,19.67
2023-01-23T18:48:41.729Z,22.17
2023-01-23T18:51:14.562Z,21.47
2023-01-23T18:53:46.700Z,21.07
2023-01-23T18:56:22.382Z,20.07
2023-01-23T18:59:09.953Z,18.47
2023-01-23T19:01:43.689Z,20.13
2023-01-23T19:04:13.118Z,19.53
2023-01-23T19:06:41.148Z,19.50
2023-01-23T19:09:14.202Z,23.60
2023-01-23T19:11:50.575Z,20.43
2023-01-23T19:14:23.962Z,21.67
2023-01-23T19:16:54.912Z,20.13
2023-01-23T19:19:26.785Z,20.03
2023-01-23T19:21:54.344Z,20.70
2023-01-23T19:24:21.960Z,19.27
2023-01-23T19:26:50.241Z,18.90
2023-01-23T19:29:22.447Z,19.63
2023-01-23T19:32:06.883Z,21.00
2023-01-23T19:34:35.275Z,18.67
2023-01-23T19:37:03.350Z,20.27
2023-01-23T19:39:30.814Z,17.03
2023-01-23T19:41:59.005Z,16.37
2023-01-23T19:44:29.849Z,18.33
2023-01-23T19:46:57.395Z,18.37
2023-01-23T19:49:25.724Z,20.97
2023-01-23T19:51:53.260Z,15.97
2023-01-23T19:54:23.722Z,16.87
2023-01-23T19:56:51.723Z,15.17
2023-01-23T19:59:19.191Z,16.43
2023-01-23T20:01:50.432Z,18.70
2023-01-23T20:04:19.880Z,17.10
2023-01-23T20:06:48.936Z,16.60
2023-01-23T20:09:17.534Z,15.47
2023-01-23T20:11:45.585Z,17.57
2023-01-23T20:14:13.333Z,16.80
2023-01-23T20:16:43.143Z,18.00
2023-01-23T20:19:13.879Z,17.90
2023-01-23T20:21:41.586Z,16.73
2023-01-23T20:24:09.124Z,15.40
2023-01-23T20:26:37.012Z,15.53
2023-01-23T20:29:04.753Z,17.10
2023-01-23T20:31:32.951Z,15.40
2023-01-23T20:34:00.511Z,13.40
2023-01-23T20:36:29.852Z,16.17
2023-01-23T20:38:57.342Z,16.73
2023-01-23T20:41:24.800Z,16.57
2023-01-23T20:43:52.282Z,18.10
2023-01-23T20:46:19.874Z,18.60
2023-01-23T20:48:47.530Z,17.20
2023-01-23T20:51:15.691Z,16.53
2023-01-23T20:53:44.928Z,16.27
2023-01-23T20:56:13.348Z,16.40
2023-01-23T20:58:58.681Z,17.33
2023-01-23T21:01:27.064Z,18.93
2023-01-23T21:03:55.028Z,16.00
2023-01-23T21:06:22.775Z,16.17
2023-01-23T21:08:51.556Z,15.93
2023-01-23T21:11:20.118Z,17.50
2023-01-23T21:13:51.201Z,17.63
2023-01-23T21:16:18.964Z,18.47
2023-01-23T21:18:47.127Z,17.80
2023-01-23T21:21:15.695Z,17.73
2023-01-23T21:23:43.204Z,18.43
2023-01-23T21:26:12.065Z,15.17
2023-01-23T21:28:39.536Z,19.33
2023-01-23T21:31:10.623Z,15.40
2023-01-23T21:33:40.411Z,19.00
2023-01-23T21:36:08.345Z,16.50
2023-01-23T21:38:35.795Z,19.67
2023-01-23T21:41:03.609Z,16.60
2023-01-23T21:43:32.432Z,18.20
2023-01-23T21:45:59.942Z,15.60
2023-01-23T21:48:29.057Z,16.20
2023-01-23T21:51:04.069Z,17.03
2023-01-23T21:53:31.552Z,15.30
2023-01-23T21:55:59.064Z,14.80
2023-01-23T21:58:26.524Z,16.37
2023-01-23T22:01:15.961Z,16.30
2023-01-23T22:03:43.514Z,17.43
2023-01-23T22:06:11.217Z,16.93
2023-01-23T22:08:38.638Z,15.37
2023-01-23T22:11:06.656Z,16.83
2023-01-23T22:13:34.130Z,16.67
2023-01-23T22:16:03.317Z,17.70
2023-01-23T22:18:31.096Z,15.97
2023-01-23T22:20:59.513Z,16.50
2023-01-23T22:23:27.554Z,19.40
2023-01-23T22:25:56.587Z,15.03
2023-01-23T22:28:24.072Z,19.73
2023-01-23T22:30:51.679Z,15.87
2023-01-23T22:33:22.376Z,15.60
2023-01-23T22:35:50.294Z,16.20
2023-01-23T22:38:17.816Z,17.37
2023-01-23T22:40:45.277Z,15.53
2023-01-23T22:43:12.707Z,15.23
2023-01-23T22:45:40.484Z,17.63
2023-01-23T22:48:07.991Z,14.77
2023-01-23T22:50:37.138Z,15.80
2023-01-23T22:53:04.643Z,15.17
2023-01-23T22:55:32.056Z,16.93
2023-01-23T22:57:59.559Z,15.63
2023-01-23T23:00:26.985Z,15.43
2023-01-23T23:02:54.483Z,15.87
2023-01-23T23:05:22.335Z,14.50
2023-01-23T23:07:51.365Z,15.03
2023-01-23T23:10:19.164Z,14.27
2023-01-23T23:12:46.612Z,15.40
2023-01-23T23:15:15.852Z,18.03
2023-01-23T23:17:43.335Z,16.13
2023-01-23T23:20:11.555Z,14.30
2023-01-23T23:22:38.993Z,17.27
2023-01-23T23:25:08.288Z,14.33
2023-01-23T23:27:35.732Z,16.23
2023-01-23T23:30:03.379Z,15.23
2023-01-23T23:32:30.874Z,14.23
2023-01-23T23:34:59.218Z,14.97
2023-01-23T23:37:26.669Z,18.47
2023-01-23T23:39:54.089Z,15.70
2023-01-23T23:42:22.914Z,13.87
2023-01-23T23:44:50.391Z,15.43
2023-01-23T23:47:17.821Z,14.27
2023-01-23T23:49:45.427Z,15.10
2023-01-23T23:52:12.804Z,16.07
2023-01-23T23:54:40.227Z,16.50
2023-01-23T23:57:07.655Z,14.63
2023-01-23T23:59:36.420Z,13.10
